sensor_id;sensor_type;location;lat;lon;timestamp;temperature;humidity
15707;DHT22;7953;54.302;10.128;2023-02-28T00:01:53;4.20;99.90
15707;DHT22;7953;54.302;10.128;2023-02-28T00:04:20;4.10;99.90
15707;DHT22;7953;54.302;10.128;2023-02-28T00:06:47;4.00;99.90
15707;DHT22;7953;54.302;10.128;2023-02-28T00:09:15;4.00;99.90
15707;DHT22;7953;54.302;10.128;2023-02-28T00:11:42;3.90;99.90
15707;DHT22;7953;54.302;10.128;2023-02-28T00:14:09;3.90;99.90
15707;DHT22;7953;54.302;10.128;2023-02-28T00:16:36;3.80;99.90
15707;DHT22;7953;54.302;10.128;2023-02-28T00:19:03;3.80;99.90
15707;DHT22;7953;54.302;10.128;2023-02-28T00:21:29;3.80;99.90
15707;DHT22;7953;54.302;10.128;2023-02-28T00:23:56;3.80;99.90
15707;DHT22;7953;54.302;10.128;2023-02-28T00:26:25;3.80;99.90
15707;DHT22;7953;54.302;10.128;2023-02-28T00:28:51;3.90;99.90
15707;DHT22;7953;54.302;10.128;2023-02-28T00:31:19;3.90;99.90
15707;DHT22;7953;54.302;10.128;2023-02-28T00:33:46;3.90;99.90
15707;DHT22;7953;54.302;10.128;2023-02-28T00:36:12;3.90;99.90
15707;DHT22;7953;54.302;10.128;2023-02-28T00:38:40;3.90;99.90
15707;DHT22;7953;54.302;10.128;2023-02-28T00:41:07;3.80;99.90
15707;DHT22;7953;54.302;10.128;2023-02-28T00:43:37;3.90;99.90
15707;DHT22;7953;54.302;10.128;2023-02-28T00:46:04;3.90;99.90
15707;DHT22;7953;54.302;10.128;2023-02-28T00:48:32;3.90;99.90
15707;DHT22;7953;54.302;10.128;2023-02-28T00:50:59;3.80;99.90
15707;DHT22;7953;54.302;10.128;2023-02-28T00:53:26;3.80;99.90
15707;DHT22;7953;54.302;10.128;2023-02-28T00:55:53;3.80;99.90
15707;DHT22;7953;54.302;10.128;2023-02-28T00:58:20;3.90;99.90
15707;DHT22;7953;54.302;10.128;2023-02-28T01:00:48;3.90;99.90
15707;DHT22;7953;54.302;10.128;2023-02-28T01:03:15;3.90;99.90
15707;DHT22;7953;54.302;10.128;2023-02-28T01:05:43;3.90;99.90
15707;DHT22;7953;54.302;10.128;2023-02-28T01:08:10;3.90;99.90
15707;DHT22;7953;54.302;10.128;2023-02-28T01:10:37;3.90;99.90
15707;DHT22;7953;54.302;10.128;2023-02-28T01:13:04;3.90;99.90
15707;DHT22;7953;54.302;10.128;2023-02-28T01:15:31;3.80;99.90
15707;DHT22;7953;54.302;10.128;2023-02-28T01:17:59;3.80;99.90
15707;DHT22;7953;54.302;10.128;2023-02-28T01:20:26;3.80;99.90
15707;DHT22;7953;54.302;10.128;2023-02-28T01:22:53;3.80;99.90
15707;DHT22;7953;54.302;10.128;2023-02-28T01:25:20;3.80;99.90
15707;DHT22;7953;54.302;10.128;2023-02-28T01:27:47;3.80;99.90
15707;DHT22;7953;54.302;10.128;2023-02-28T01:30:14;3.80;99.90
15707;DHT22;7953;54.302;10.128;2023-02-28T01:32:41;3.80;99.90
15707;DHT22;7953;54.302;10.128;2023-02-28T01:35:09;3.80;99.90
15707;DHT22;7953;54.302;10.128;2023-02-28T01:37:36;3.80;99.90
15707;DHT22;7953;54.302;10.128;2023-02-28T01:40:04;3.80;99.90
15707;DHT22;7953;54.302;10.128;2023-02-28T01:42:31;3.80;99.90
15707;DHT22;7953;54.302;10.128;2023-02-28T01:45:03;3.80;99.90
15707;DHT22;7953;54.302;10.128;2023-02-28T01:47:32;3.80;99.90
15707;DHT22;7953;54.302;10.128;2023-02-28T01:50:04;3.80;99.90
15707;DHT22;7953;54.302;10.128;2023-02-28T01:52:34;3.80;99.90
15707;DHT22;7953;54.302;10.128;2023-02-28T01:55:02;3.80;99.90
15707;DHT22;7953;54.302;10.128;2023-02-28T01:57:34;3.80;99.90
15707;DHT22;7953;54.302;10.128;2023-02-28T02:00:06;3.80;99.90
15707;DHT22;7953;54.302;10.128;2023-02-28T02:02:36;3.80;99.90
15707;DHT22;7953;54.302;10.128;2023-02-28T02:05:05;3.70;99.90
15707;DHT22;7953;54.302;10.128;2023-02-28T02:07:35;3.70;99.90
15707;DHT22;7953;54.302;10.128;2023-02-28T02:10:05;3.60;99.90
15707;DHT22;7953;54.302;10.128;2023-02-28T02:12:49;3.70;99.90
15707;DHT22;7953;54.302;10.128;2023-02-28T02:15:23;3.70;99.90
15707;DHT22;7953;54.302;10.128;2023-02-28T02:17:57;3.60;99.90
15707;DHT22;7953;54.302;10.128;2023-02-28T02:20:49;3.60;99.90
15707;DHT22;7953;54.302;10.128;2023-02-28T02:26:54;3.50;99.90
15707;DHT22;7953;54.302;10.128;2023-02-28T02:35:49;3.40;99.90
15707;DHT22;7953;54.302;10.128;2023-02-28T02:38:27;3.30;99.90
15707;DHT22;7953;54.302;10.128;2023-02-28T02:40:59;3.30;99.90
15707;DHT22;7953;54.302;10.128;2023-02-28T02:43:33;3.30;99.90
15707;DHT22;7953;54.302;10.128;2023-02-28T02:46:05;3.30;99.90
15707;DHT22;7953;54.302;10.128;2023-02-28T02:48:36;3.20;99.90
15707;DHT22;7953;54.302;10.128;2023-02-28T02:51:09;3.20;99.90
15707;DHT22;7953;54.302;10.128;2023-02-28T02:53:41;3.20;99.90
15707;DHT22;7953;54.302;10.128;2023-02-28T02:56:09;3.20;99.90
15707;DHT22;7953;54.302;10.128;2023-02-28T02:58:40;3.20;99.90
15707;DHT22;7953;54.302;10.128;2023-02-28T03:01:10;3.20;99.90
15707;DHT22;7953;54.302;10.128;2023-02-28T03:03:39;3.30;99.90
15707;DHT22;7953;54.302;10.128;2023-02-28T03:06:07;3.30;99.90
15707;DHT22;7953;54.302;10.128;2023-02-28T03:08:37;3.20;99.90
15707;DHT22;7953;54.302;10.128;2023-02-28T03:11:06;3.20;99.90
15707;DHT22;7953;54.302;10.128;2023-02-28T03:13:54;3.10;99.90
15707;DHT22;7953;54.302;10.128;2023-02-28T03:16:39;3.10;99.90
15707;DHT22;7953;54.302;10.128;2023-02-28T03:19:25;3.00;99.90
15707;DHT22;7953;54.302;10.128;2023-02-28T03:22:05;3.00;99.90
15707;DHT22;7953;54.302;10.128;2023-02-28T03:24:43;2.90;99.90
15707;DHT22;7953;54.302;10.128;2023-02-28T03:27:14;2.90;99.90
15707;DHT22;7953;54.302;10.128;2023-02-28T03:29:47;2.90;99.90
15707;DHT22;7953;54.302;10.128;2023-02-28T03:32:18;2.90;99.90
15707;DHT22;7953;54.302;10.128;2023-02-28T03:34:53;2.90;99.90
15707;DHT22;7953;54.302;10.128;2023-02-28T03:37:25;2.80;99.90
15707;DHT22;7953;54.302;10.128;2023-02-28T03:39:58;2.80;99.90
15707;DHT22;7953;54.302;10.128;2023-02-28T03:42:28;2.80;99.90
15707;DHT22;7953;54.302;10.128;2023-02-28T03:44:58;2.70;99.90
15707;DHT22;7953;54.302;10.128;2023-02-28T03:47:30;2.70;99.90
15707;DHT22;7953;54.302;10.128;2023-02-28T03:50:00;2.80;99.90
15707;DHT22;7953;54.302;10.128;2023-02-28T03:52:31;2.70;99.90
15707;DHT22;7953;54.302;10.128;2023-02-28T03:55:02;2.60;99.90
15707;DHT22;7953;54.302;10.128;2023-02-28T03:57:36;2.60;99.90
15707;DHT22;7953;54.302;10.128;2023-02-28T04:00:07;2.60;99.90
15707;DHT22;7953;54.302;10.128;2023-02-28T04:02:36;2.60;99.90
15707;DHT22;7953;54.302;10.128;2023-02-28T04:05:05;2.60;99.90
15707;DHT22;7953;54.302;10.128;2023-02-28T04:07:34;2.50;99.90
15707;DHT22;7953;54.302;10.128;2023-02-28T04:10:03;2.40;99.90
15707;DHT22;7953;54.302;10.128;2023-02-28T04:12:30;2.30;99.90
15707;DHT22;7953;54.302;10.128;2023-02-28T04:14:57;2.30;99.90
15707;DHT22;7953;54.302;10.128;2023-02-28T04:17:25;2.20;99.90
15707;DHT22;7953;54.302;10.128;2023-02-28T04:19:52;2.30;99.90
15707;DHT22;7953;54.302;10.128;2023-02-28T04:22:19;2.20;99.90
15707;DHT22;7953;54.302;10.128;2023-02-28T04:24:47;2.20;99.90
15707;DHT22;7953;54.302;10.128;2023-02-28T04:27:14;2.10;99.90
15707;DHT22;7953;54.302;10.128;2023-02-28T04:29:41;2.10;99.90
15707;DHT22;7953;54.302;10.128;2023-02-28T04:32:10;2.00;99.90
15707;DHT22;7953;54.302;10.128;2023-02-28T04:34:38;1.90;99.90
15707;DHT22;7953;54.302;10.128;2023-02-28T04:37:05;1.80;99.90
15707;DHT22;7953;54.302;10.128;2023-02-28T04:39:35;1.80;99.90
15707;DHT22;7953;54.302;10.128;2023-02-28T04:42:03;1.70;99.90
15707;DHT22;7953;54.302;10.128;2023-02-28T04:44:30;1.70;99.90
15707;DHT22;7953;54.302;10.128;2023-02-28T04:46:58;1.60;99.90
15707;DHT22;7953;54.302;10.128;2023-02-28T04:49:25;1.60;99.90
15707;DHT22;7953;54.302;10.128;2023-02-28T04:51:52;1.60;99.90
15707;DHT22;7953;54.302;10.128;2023-02-28T04:54:19;1.50;99.90
15707;DHT22;7953;54.302;10.128;2023-02-28T04:56:46;1.50;99.90
15707;DHT22;7953;54.302;10.128;2023-02-28T04:59:16;1.50;99.90
15707;DHT22;7953;54.302;10.128;2023-02-28T05:01:46;1.40;99.90
15707;DHT22;7953;54.302;10.128;2023-02-28T05:04:13;1.40;99.90
15707;DHT22;7953;54.302;10.128;2023-02-28T05:06:40;1.30;99.90
15707;DHT22;7953;54.302;10.128;2023-02-28T05:09:07;1.30;99.90
15707;DHT22;7953;54.302;10.128;2023-02-28T05:11:37;1.30;99.90
15707;DHT22;7953;54.302;10.128;2023-02-28T05:14:06;1.20;99.90
15707;DHT22;7953;54.302;10.128;2023-02-28T05:16:34;1.20;99.90
15707;DHT22;7953;54.302;10.128;2023-02-28T05:19:01;1.20;99.90
15707;DHT22;7953;54.302;10.128;2023-02-28T05:21:30;1.10;99.90
15707;DHT22;7953;54.302;10.128;2023-02-28T05:23:58;1.10;99.90
15707;DHT22;7953;54.302;10.128;2023-02-28T05:26:26;1.00;99.90
15707;DHT22;7953;54.302;10.128;2023-02-28T05:28:55;1.00;99.90
15707;DHT22;7953;54.302;10.128;2023-02-28T05:31:22;1.00;99.90
15707;DHT22;7953;54.302;10.128;2023-02-28T05:33:50;1.10;99.90
15707;DHT22;7953;54.302;10.128;2023-02-28T05:36:18;1.00;99.90
15707;DHT22;7953;54.302;10.128;2023-02-28T05:38:46;1.00;99.90
15707;DHT22;7953;54.302;10.128;2023-02-28T05:41:15;1.00;99.90
15707;DHT22;7953;54.302;10.128;2023-02-28T05:43:43;1.10;99.90
15707;DHT22;7953;54.302;10.128;2023-02-28T05:46:10;1.00;99.90
15707;DHT22;7953;54.302;10.128;2023-02-28T05:48:39;1.00;99.90
15707;DHT22;7953;54.302;10.128;2023-02-28T05:51:08;1.00;99.90
15707;DHT22;7953;54.302;10.128;2023-02-28T05:53:35;1.00;99.90
15707;DHT22;7953;54.302;10.128;2023-02-28T05:56:03;1.10;99.90
15707;DHT22;7953;54.302;10.128;2023-02-28T05:58:30;1.00;99.90
15707;DHT22;7953;54.302;10.128;2023-02-28T06:00:57;1.10;99.90
15707;DHT22;7953;54.302;10.128;2023-02-28T06:03:25;1.10;99.90
15707;DHT22;7953;54.302;10.128;2023-02-28T06:05:52;1.10;99.90
15707;DHT22;7953;54.302;10.128;2023-02-28T06:08:20;1.00;99.90
15707;DHT22;7953;54.302;10.128;2023-02-28T06:10:47;1.00;99.90
15707;DHT22;7953;54.302;10.128;2023-02-28T06:13:14;1.00;99.90
15707;DHT22;7953;54.302;10.128;2023-02-28T06:15:41;0.90;99.90
15707;DHT22;7953;54.302;10.128;2023-02-28T06:18:08;0.80;99.90
15707;DHT22;7953;54.302;10.128;2023-02-28T06:20:35;0.80;99.90
15707;DHT22;7953;54.302;10.128;2023-02-28T06:23:02;0.70;99.90
15707;DHT22;7953;54.302;10.128;2023-02-28T06:25:31;0.70;99.90
15707;DHT22;7953;54.302;10.128;2023-02-28T06:27:58;0.70;99.90
15707;DHT22;7953;54.302;10.128;2023-02-28T06:30:24;0.70;99.90
15707;DHT22;7953;54.302;10.128;2023-02-28T06:32:54;0.60;99.90
15707;DHT22;7953;54.302;10.128;2023-02-28T06:35:21;0.60;99.90
15707;DHT22;7953;54.302;10.128;2023-02-28T06:37:48;0.50;99.90
15707;DHT22;7953;54.302;10.128;2023-02-28T06:40:15;0.50;99.90
15707;DHT22;7953;54.302;10.128;2023-02-28T06:42:44;0.50;99.90
15707;DHT22;7953;54.302;10.128;2023-02-28T06:45:13;0.50;99.90
15707;DHT22;7953;54.302;10.128;2023-02-28T06:47:41;0.60;99.90
15707;DHT22;7953;54.302;10.128;2023-02-28T06:50:10;0.50;99.90
15707;DHT22;7953;54.302;10.128;2023-02-28T06:52:37;0.60;99.90
15707;DHT22;7953;54.302;10.128;2023-02-28T06:55:06;0.50;99.90
15707;DHT22;7953;54.302;10.128;2023-02-28T06:57:34;0.60;99.90
15707;DHT22;7953;54.302;10.128;2023-02-28T07:00:05;0.70;99.90
15707;DHT22;7953;54.302;10.128;2023-02-28T07:02:33;0.70;99.90
15707;DHT22;7953;54.302;10.128;2023-02-28T07:05:00;0.70;99.90
15707;DHT22;7953;54.302;10.128;2023-02-28T07:07:27;0.70;99.90
15707;DHT22;7953;54.302;10.128;2023-02-28T07:09:54;0.80;99.90
15707;DHT22;7953;54.302;10.128;2023-02-28T07:12:20;0.80;99.90
15707;DHT22;7953;54.302;10.128;2023-02-28T07:14:47;0.80;99.90
15707;DHT22;7953;54.302;10.128;2023-02-28T07:17:16;0.80;99.90
15707;DHT22;7953;54.302;10.128;2023-02-28T07:19:43;0.80;99.90
15707;DHT22;7953;54.302;10.128;2023-02-28T07:22:11;0.90;99.90
15707;DHT22;7953;54.302;10.128;2023-02-28T07:24:38;0.90;99.90
15707;DHT22;7953;54.302;10.128;2023-02-28T07:27:05;0.90;99.90
15707;DHT22;7953;54.302;10.128;2023-02-28T07:29:32;1.10;99.90
15707;DHT22;7953;54.302;10.128;2023-02-28T07:31:59;1.20;99.90
15707;DHT22;7953;54.302;10.128;2023-02-28T07:34:27;1.30;99.90
15707;DHT22;7953;54.302;10.128;2023-02-28T07:36:54;1.50;99.90
15707;DHT22;7953;54.302;10.128;2023-02-28T07:39:22;1.60;99.90
15707;DHT22;7953;54.302;10.128;2023-02-28T07:41:48;1.70;99.90
15707;DHT22;7953;54.302;10.128;2023-02-28T07:44:16;1.80;99.90
15707;DHT22;7953;54.302;10.128;2023-02-28T07:46:43;1.80;99.90
15707;DHT22;7953;54.302;10.128;2023-02-28T07:49:10;1.90;99.90
15707;DHT22;7953;54.302;10.128;2023-02-28T07:51:38;2.00;99.90
15707;DHT22;7953;54.302;10.128;2023-02-28T07:54:05;2.10;99.90
15707;DHT22;7953;54.302;10.128;2023-02-28T07:56:33;2.20;99.90
15707;DHT22;7953;54.302;10.128;2023-02-28T07:59:00;2.20;99.90
15707;DHT22;7953;54.302;10.128;2023-02-28T08:01:27;2.20;99.90
15707;DHT22;7953;54.302;10.128;2023-02-28T08:03:54;2.30;99.90
15707;DHT22;7953;54.302;10.128;2023-02-28T08:06:23;2.30;99.90
15707;DHT22;7953;54.302;10.128;2023-02-28T08:08:53;2.30;99.90
15707;DHT22;7953;54.302;10.128;2023-02-28T08:11:21;2.40;99.90
15707;DHT22;7953;54.302;10.128;2023-02-28T08:13:49;2.50;99.90
15707;DHT22;7953;54.302;10.128;2023-02-28T08:16:17;2.50;99.90
15707;DHT22;7953;54.302;10.128;2023-02-28T08:18:47;2.60;99.90
15707;DHT22;7953;54.302;10.128;2023-02-28T08:21:14;2.70;99.90
15707;DHT22;7953;54.302;10.128;2023-02-28T08:23:41;2.70;99.90
15707;DHT22;7953;54.302;10.128;2023-02-28T08:26:10;2.80;99.90
15707;DHT22;7953;54.302;10.128;2023-02-28T08:28:37;2.90;99.90
15707;DHT22;7953;54.302;10.128;2023-02-28T08:31:07;3.10;99.90
15707;DHT22;7953;54.302;10.128;2023-02-28T08:33:35;3.20;99.90
15707;DHT22;7953;54.302;10.128;2023-02-28T08:36:02;3.30;99.90
15707;DHT22;7953;54.302;10.128;2023-02-28T08:38:29;3.40;99.90
15707;DHT22;7953;54.302;10.128;2023-02-28T08:40:59;3.60;99.90
15707;DHT22;7953;54.302;10.128;2023-02-28T08:43:30;3.90;99.90
15707;DHT22;7953;54.302;10.128;2023-02-28T08:45:57;4.00;99.90
15707;DHT22;7953;54.302;10.128;2023-02-28T08:48:24;4.10;99.90
15707;DHT22;7953;54.302;10.128;2023-02-28T08:50:58;4.20;99.90
15707;DHT22;7953;54.302;10.128;2023-02-28T08:53:25;4.30;99.90
15707;DHT22;7953;54.302;10.128;2023-02-28T08:55:56;4.50;99.90
15707;DHT22;7953;54.302;10.128;2023-02-28T08:58:23;4.70;99.90
15707;DHT22;7953;54.302;10.128;2023-02-28T09:00:52;5.00;99.90
15707;DHT22;7953;54.302;10.128;2023-02-28T09:03:19;5.00;99.90
15707;DHT22;7953;54.302;10.128;2023-02-28T09:05:53;5.30;99.90
15707;DHT22;7953;54.302;10.128;2023-02-28T09:08:20;5.80;99.90
15707;DHT22;7953;54.302;10.128;2023-02-28T09:10:47;6.30;99.90
15707;DHT22;7953;54.302;10.128;2023-02-28T09:13:14;6.80;99.90
15707;DHT22;7953;54.302;10.128;2023-02-28T09:15:41;7.50;99.90
15707;DHT22;7953;54.302;10.128;2023-02-28T09:18:09;8.30;99.90
15707;DHT22;7953;54.302;10.128;2023-02-28T09:20:38;9.00;99.90
15707;DHT22;7953;54.302;10.128;2023-02-28T09:23:05;9.70;99.90
15707;DHT22;7953;54.302;10.128;2023-02-28T09:25:32;10.10;99.90
15707;DHT22;7953;54.302;10.128;2023-02-28T09:27:59;10.60;99.90
15707;DHT22;7953;54.302;10.128;2023-02-28T09:30:27;11.10;99.90
15707;DHT22;7953;54.302;10.128;2023-02-28T09:32:54;11.30;99.90
15707;DHT22;7953;54.302;10.128;2023-02-28T09:35:23;11.70;99.90
15707;DHT22;7953;54.302;10.128;2023-02-28T09:37:52;11.90;99.90
15707;DHT22;7953;54.302;10.128;2023-02-28T09:40:21;11.70;99.90
15707;DHT22;7953;54.302;10.128;2023-02-28T09:42:50;11.80;99.90
15707;DHT22;7953;54.302;10.128;2023-02-28T09:45:23;12.10;99.90
15707;DHT22;7953;54.302;10.128;2023-02-28T09:47:53;12.30;99.90
15707;DHT22;7953;54.302;10.128;2023-02-28T09:50:29;11.60;99.90
15707;DHT22;7953;54.302;10.128;2023-02-28T09:52:59;11.50;99.90
15707;DHT22;7953;54.302;10.128;2023-02-28T09:55:31;11.40;99.90
15707;DHT22;7953;54.302;10.128;2023-02-28T09:58:00;10.80;99.90
15707;DHT22;7953;54.302;10.128;2023-02-28T10:00:32;9.90;99.90
15707;DHT22;7953;54.302;10.128;2023-02-28T10:03:28;9.60;99.90
15707;DHT22;7953;54.302;10.128;2023-02-28T10:06:02;9.50;99.90
15707;DHT22;7953;54.302;10.128;2023-02-28T10:08:37;9.60;99.90
15707;DHT22;7953;54.302;10.128;2023-02-28T10:11:09;9.60;99.90
15707;DHT22;7953;54.302;10.128;2023-02-28T10:13:45;9.60;99.90
15707;DHT22;7953;54.302;10.128;2023-02-28T10:16:18;9.40;99.90
15707;DHT22;7953;54.302;10.128;2023-02-28T10:18:50;9.50;99.90
15707;DHT22;7953;54.302;10.128;2023-02-28T10:21:23;9.50;99.90
15707;DHT22;7953;54.302;10.128;2023-02-28T10:23:59;9.60;99.90
15707;DHT22;7953;54.302;10.128;2023-02-28T10:26:29;9.70;99.90
15707;DHT22;7953;54.302;10.128;2023-02-28T10:28:56;9.30;99.90
15707;DHT22;7953;54.302;10.128;2023-02-28T10:31:23;9.20;99.90
15707;DHT22;7953;54.302;10.128;2023-02-28T10:33:50;9.00;99.90
15707;DHT22;7953;54.302;10.128;2023-02-28T10:36:20;8.80;99.90
15707;DHT22;7953;54.302;10.128;2023-02-28T10:38:48;8.70;99.90
15707;DHT22;7953;54.302;10.128;2023-02-28T10:41:18;8.60;99.90
15707;DHT22;7953;54.302;10.128;2023-02-28T10:43:53;8.50;99.90
15707;DHT22;7953;54.302;10.128;2023-02-28T10:46:39;8.40;99.90
15707;DHT22;7953;54.302;10.128;2023-02-28T10:49:14;8.40;99.90
15707;DHT22;7953;54.302;10.128;2023-02-28T10:51:42;8.30;99.90
15707;DHT22;7953;54.302;10.128;2023-02-28T10:54:18;8.20;99.90
15707;DHT22;7953;54.302;10.128;2023-02-28T10:56:45;8.10;99.90
15707;DHT22;7953;54.302;10.128;2023-02-28T10:59:28;8.20;99.90
15707;DHT22;7953;54.302;10.128;2023-02-28T11:01:56;8.40;99.90
15707;DHT22;7953;54.302;10.128;2023-02-28T11:04:33;8.60;99.90
15707;DHT22;7953;54.302;10.128;2023-02-28T11:07:16;8.90;99.90
15707;DHT22;7953;54.302;10.128;2023-02-28T11:09:46;9.20;99.90
15707;DHT22;7953;54.302;10.128;2023-02-28T11:12:21;9.60;99.90
15707;DHT22;7953;54.302;10.128;2023-02-28T11:14:51;9.90;99.90
15707;DHT22;7953;54.302;10.128;2023-02-28T11:17:20;10.10;99.90
15707;DHT22;7953;54.302;10.128;2023-02-28T11:19:51;10.40;99.90
15707;DHT22;7953;54.302;10.128;2023-02-28T11:22:24;10.60;99.90
15707;DHT22;7953;54.302;10.128;2023-02-28T11:24:56;10.80;99.90
15707;DHT22;7953;54.302;10.128;2023-02-28T11:27:26;10.90;99.90
15707;DHT22;7953;54.302;10.128;2023-02-28T11:30:24;11.10;99.90
15707;DHT22;7953;54.302;10.128;2023-02-28T11:32:51;10.90;99.90
15707;DHT22;7953;54.302;10.128;2023-02-28T11:35:23;10.80;99.90
15707;DHT22;7953;54.302;10.128;2023-02-28T11:37:52;10.90;99.90
15707;DHT22;7953;54.302;10.128;2023-02-28T11:40:23;11.00;99.90
15707;DHT22;7953;54.302;10.128;2023-02-28T11:43:02;11.10;99.90
15707;DHT22;7953;54.302;10.128;2023-02-28T11:45:45;11.20;99.90
15707;DHT22;7953;54.302;10.128;2023-02-28T11:48:21;11.20;99.90
15707;DHT22;7953;54.302;10.128;2023-02-28T11:51:08;11.20;99.90
15707;DHT22;7953;54.302;10.128;2023-02-28T11:54:15;10.80;99.90
15707;DHT22;7953;54.302;10.128;2023-02-28T11:56:50;10.80;99.90
15707;DHT22;7953;54.302;10.128;2023-02-28T11:59:44;10.80;99.90
15707;DHT22;7953;54.302;10.128;2023-02-28T12:02:25;10.80;99.90
15707;DHT22;7953;54.302;10.128;2023-02-28T12:05:10;10.80;99.90
15707;DHT22;7953;54.302;10.128;2023-02-28T12:07:45;10.90;99.90
15707;DHT22;7953;54.302;10.128;2023-02-28T12:10:21;11.10;99.90
15707;DHT22;7953;54.302;10.128;2023-02-28T12:13:01;11.40;99.90
15707;DHT22;7953;54.302;10.128;2023-02-28T12:15:45;11.50;99.90
15707;DHT22;7953;54.302;10.128;2023-02-28T12:18:55;11.60;99.90
15707;DHT22;7953;54.302;10.128;2023-02-28T12:21:36;11.80;99.90
15707;DHT22;7953;54.302;10.128;2023-02-28T12:24:45;12.00;99.90
15707;DHT22;7953;54.302;10.128;2023-02-28T12:27:17;12.00;99.90
15707;DHT22;7953;54.302;10.128;2023-02-28T12:29:50;12.10;99.90
15707;DHT22;7953;54.302;10.128;2023-02-28T12:32:22;12.10;99.90
15707;DHT22;7953;54.302;10.128;2023-02-28T12:34:56;12.10;99.90
15707;DHT22;7953;54.302;10.128;2023-02-28T12:37:31;11.70;99.90
15707;DHT22;7953;54.302;10.128;2023-02-28T12:40:02;11.50;99.90
15707;DHT22;7953;54.302;10.128;2023-02-28T12:42:36;11.20;99.90
15707;DHT22;7953;54.302;10.128;2023-02-28T12:45:10;11.00;99.90
15707;DHT22;7953;54.302;10.128;2023-02-28T12:47:38;11.00;99.90
15707;DHT22;7953;54.302;10.128;2023-02-28T12:50:10;11.20;99.90
15707;DHT22;7953;54.302;10.128;2023-02-28T12:52:41;11.10;99.90
15707;DHT22;7953;54.302;10.128;2023-02-28T12:55:17;11.30;99.90
15707;DHT22;7953;54.302;10.128;2023-02-28T12:57:51;11.20;99.90
15707;DHT22;7953;54.302;10.128;2023-02-28T13:00:25;11.20;99.90
15707;DHT22;7953;54.302;10.128;2023-02-28T13:06:23;11.00;99.90
15707;DHT22;7953;54.302;10.128;2023-02-28T13:09:04;11.20;99.90
15707;DHT22;7953;54.302;10.128;2023-02-28T13:11:33;11.10;99.90
15707;DHT22;7953;54.302;10.128;2023-02-28T13:14:22;11.10;99.90
15707;DHT22;7953;54.302;10.128;2023-02-28T13:16:57;11.10;99.90
15707;DHT22;7953;54.302;10.128;2023-02-28T13:19:26;11.20;99.90
15707;DHT22;7953;54.302;10.128;2023-02-28T13:21:55;11.30;99.90
15707;DHT22;7953;54.302;10.128;2023-02-28T13:24:47;11.50;99.90
15707;DHT22;7953;54.302;10.128;2023-02-28T13:27:36;11.60;99.90
15707;DHT22;7953;54.302;10.128;2023-02-28T13:33:28;11.60;99.90
15707;DHT22;7953;54.302;10.128;2023-02-28T13:36:11;11.60;99.90
15707;DHT22;7953;54.302;10.128;2023-02-28T13:38:49;11.50;99.90
15707;DHT22;7953;54.302;10.128;2023-02-28T13:41:46;11.20;99.90
15707;DHT22;7953;54.302;10.128;2023-02-28T13:44:15;10.90;99.90
15707;DHT22;7953;54.302;10.128;2023-02-28T13:47:20;10.70;99.90
15707;DHT22;7953;54.302;10.128;2023-02-28T13:49:50;10.80;99.90
15707;DHT22;7953;54.302;10.128;2023-02-28T13:52:21;10.90;99.90
15707;DHT22;7953;54.302;10.128;2023-02-28T13:55:06;11.00;99.90
15707;DHT22;7953;54.302;10.128;2023-02-28T13:57:53;11.00;99.90
15707;DHT22;7953;54.302;10.128;2023-02-28T14:00:31;11.10;99.90
15707;DHT22;7953;54.302;10.128;2023-02-28T14:03:26;11.00;99.90
15707;DHT22;7953;54.302;10.128;2023-02-28T14:06:23;11.00;99.90
15707;DHT22;7953;54.302;10.128;2023-02-28T14:08:58;11.10;99.90
15707;DHT22;7953;54.302;10.128;2023-02-28T14:11:31;11.10;99.90
15707;DHT22;7953;54.302;10.128;2023-02-28T14:13:58;11.00;99.90
15707;DHT22;7953;54.302;10.128;2023-02-28T14:16:28;11.10;99.90
15707;DHT22;7953;54.302;10.128;2023-02-28T14:19:03;11.10;99.90
15707;DHT22;7953;54.302;10.128;2023-02-28T14:21:40;10.90;99.90
15707;DHT22;7953;54.302;10.128;2023-02-28T14:24:25;10.70;99.90
15707;DHT22;7953;54.302;10.128;2023-02-28T14:27:14;10.70;99.90
15707;DHT22;7953;54.302;10.128;2023-02-28T14:32:54;10.80;99.90
15707;DHT22;7953;54.302;10.128;2023-02-28T14:35:43;10.70;99.90
15707;DHT22;7953;54.302;10.128;2023-02-28T14:38:18;10.80;99.90
15707;DHT22;7953;54.302;10.128;2023-02-28T14:40:47;10.80;99.90
15707;DHT22;7953;54.302;10.128;2023-02-28T14:43:20;10.70;99.90
15707;DHT22;7953;54.302;10.128;2023-02-28T14:45:50;10.60;99.90
15707;DHT22;7953;54.302;10.128;2023-02-28T14:48:19;10.70;99.90
15707;DHT22;7953;54.302;10.128;2023-02-28T14:50:49;10.70;99.90
15707;DHT22;7953;54.302;10.128;2023-02-28T14:53:20;10.80;99.90
15707;DHT22;7953;54.302;10.128;2023-02-28T14:55:49;10.80;99.90
15707;DHT22;7953;54.302;10.128;2023-02-28T14:58:23;10.90;99.90
15707;DHT22;7953;54.302;10.128;2023-02-28T15:00:51;10.90;99.90
15707;DHT22;7953;54.302;10.128;2023-02-28T15:03:20;10.90;99.90
15707;DHT22;7953;54.302;10.128;2023-02-28T15:05:52;10.80;99.90
15707;DHT22;7953;54.302;10.128;2023-02-28T15:08:23;10.70;99.90
15707;DHT22;7953;54.302;10.128;2023-02-28T15:10:53;10.70;99.90
15707;DHT22;7953;54.302;10.128;2023-02-28T15:13:21;10.70;99.90
15707;DHT22;7953;54.302;10.128;2023-02-28T15:15:52;10.70;99.90
15707;DHT22;7953;54.302;10.128;2023-02-28T15:18:29;10.60;99.90
15707;DHT22;7953;54.302;10.128;2023-02-28T15:21:01;10.40;99.90
15707;DHT22;7953;54.302;10.128;2023-02-28T15:23:30;10.40;99.90
15707;DHT22;7953;54.302;10.128;2023-02-28T15:25:59;10.30;99.90
15707;DHT22;7953;54.302;10.128;2023-02-28T15:28:26;10.30;99.90
15707;DHT22;7953;54.302;10.128;2023-02-28T15:30:56;10.30;99.90
15707;DHT22;7953;54.302;10.128;2023-02-28T15:33:26;10.20;99.90
15707;DHT22;7953;54.302;10.128;2023-02-28T15:36:10;10.10;99.90
15707;DHT22;7953;54.302;10.128;2023-02-28T15:38:41;9.90;99.90
15707;DHT22;7953;54.302;10.128;2023-02-28T15:41:22;9.80;99.90
15707;DHT22;7953;54.302;10.128;2023-02-28T15:44:14;9.80;99.90
15707;DHT22;7953;54.302;10.128;2023-02-28T15:46:43;9.70;99.90
15707;DHT22;7953;54.302;10.128;2023-02-28T15:49:18;9.60;99.90
15707;DHT22;7953;54.302;10.128;2023-02-28T15:51:46;9.60;99.90
15707;DHT22;7953;54.302;10.128;2023-02-28T15:54:19;9.50;99.90
15707;DHT22;7953;54.302;10.128;2023-02-28T15:56:49;9.50;99.90
15707;DHT22;7953;54.302;10.128;2023-02-28T15:59:20;9.40;99.90
15707;DHT22;7953;54.302;10.128;2023-02-28T16:02:03;9.30;99.90
15707;DHT22;7953;54.302;10.128;2023-02-28T16:04:55;9.20;99.90
15707;DHT22;7953;54.302;10.128;2023-02-28T16:07:22;9.10;99.90
15707;DHT22;7953;54.302;10.128;2023-02-28T16:09:52;9.00;99.90
15707;DHT22;7953;54.302;10.128;2023-02-28T16:12:20;8.80;99.90
15707;DHT22;7953;54.302;10.128;2023-02-28T16:14:48;8.70;99.90
15707;DHT22;7953;54.302;10.128;2023-02-28T16:17:21;8.60;99.90
15707;DHT22;7953;54.302;10.128;2023-02-28T16:19:49;8.60;99.90
15707;DHT22;7953;54.302;10.128;2023-02-28T16:22:16;8.50;99.90
15707;DHT22;7953;54.302;10.128;2023-02-28T16:24:43;8.30;99.90
15707;DHT22;7953;54.302;10.128;2023-02-28T16:27:16;8.30;99.90
15707;DHT22;7953;54.302;10.128;2023-02-28T16:29:44;8.20;99.90